sensor_id;sensor_type;location;lat;lon;timestamp;P1;durP1;ratioP1;P2;durP2;ratioP2
6999;SDS011;3540;53.242;10.408;2023-04-01T00:01:04;8.27;;;4.03;;
6999;SDS011;3540;53.242;10.408;2023-04-01T00:03:31;7.47;;;3.70;;
6999;SDS011;3540;53.242;10.408;2023-04-01T00:05:59;10.73;;;3.50;;
6999;SDS011;3540;53.242;10.408;2023-04-01T00:08:25;10.20;;;3.70;;
6999;SDS011;3540;53.242;10.408;2023-04-01T00:10:51;9.10;;;3.40;;
6999;SDS011;3540;53.242;10.408;2023-04-01T00:13:18;7.10;;;3.43;;
6999;SDS011;3540;53.242;10.408;2023-04-01T00:15:44;11.40;;;3.53;;
6999;SDS011;3540;53.242;10.408;2023-04-01T00:18:10;6.83;;;3.40;;
6999;SDS011;3540;53.242;10.408;2023-04-01T00:20:36;7.53;;;3.37;;
6999;SDS011;3540;53.242;10.408;2023-04-01T00:23:02;8.77;;;3.50;;
6999;SDS011;3540;53.242;10.408;2023-04-01T00:25:28;7.40;;;3.27;;
6999;SDS011;3540;53.242;10.408;2023-04-01T00:27:53;7.70;;;3.30;;
6999;SDS011;3540;53.242;10.408;2023-04-01T00:30:19;8.57;;;3.57;;
6999;SDS011;3540;53.242;10.408;2023-04-01T00:32:45;8.57;;;3.47;;
6999;SDS011;3540;53.242;10.408;2023-04-01T00:35:10;11.53;;;3.57;;
6999;SDS011;3540;53.242;10.408;2023-04-01T00:37:37;10.90;;;3.83;;
6999;SDS011;3540;53.242;10.408;2023-04-01T00:40:08;9.23;;;3.10;;
6999;SDS011;3540;53.242;10.408;2023-04-01T00:42:51;6.30;;;3.23;;
6999;SDS011;3540;53.242;10.408;2023-04-01T00:47:52;8.77;;;3.40;;
6999;SDS011;3540;53.242;10.408;2023-04-01T00:50:18;8.60;;;3.13;;
6999;SDS011;3540;53.242;10.408;2023-04-01T00:52:44;8.63;;;3.30;;
6999;SDS011;3540;53.242;10.408;2023-04-01T00:55:11;6.20;;;2.80;;
6999;SDS011;3540;53.242;10.408;2023-04-01T00:57:40;6.07;;;2.90;;
6999;SDS011;3540;53.242;10.408;2023-04-01T01:00:09;8.53;;;3.37;;
6999;SDS011;3540;53.242;10.408;2023-04-01T01:02:36;9.47;;;3.13;;
6999;SDS011;3540;53.242;10.408;2023-04-01T01:05:02;8.10;;;3.30;;
6999;SDS011;3540;53.242;10.408;2023-04-01T01:07:45;7.53;;;3.43;;
6999;SDS011;3540;53.242;10.408;2023-04-01T01:26:09;8.83;;;3.43;;
6999;SDS011;3540;53.242;10.408;2023-04-01T01:31:37;11.17;;;3.60;;
6999;SDS011;3540;53.242;10.408;2023-04-01T01:37:32;7.30;;;3.33;;
6999;SDS011;3540;53.242;10.408;2023-04-01T01:40:00;7.60;;;3.13;;
6999;SDS011;3540;53.242;10.408;2023-04-01T01:42:30;7.90;;;3.20;;
6999;SDS011;3540;53.242;10.408;2023-04-01T01:44:58;6.23;;;3.20;;
6999;SDS011;3540;53.242;10.408;2023-04-01T01:47:26;7.23;;;3.20;;
6999;SDS011;3540;53.242;10.408;2023-04-01T01:49:53;10.47;;;3.30;;
6999;SDS011;3540;53.242;10.408;2023-04-01T01:52:21;15.43;;;3.50;;
6999;SDS011;3540;53.242;10.408;2023-04-01T01:54:51;6.97;;;2.87;;
6999;SDS011;3540;53.242;10.408;2023-04-01T01:57:25;7.13;;;3.00;;
6999;SDS011;3540;53.242;10.408;2023-04-01T01:59:55;6.73;;;2.93;;
6999;SDS011;3540;53.242;10.408;2023-04-01T02:02:25;8.43;;;3.33;;
6999;SDS011;3540;53.242;10.408;2023-04-01T02:04:52;7.17;;;2.87;;
6999;SDS011;3540;53.242;10.408;2023-04-01T02:07:26;10.03;;;3.37;;
6999;SDS011;3540;53.242;10.408;2023-04-01T02:09:55;12.30;;;4.00;;
6999;SDS011;3540;53.242;10.408;2023-04-01T02:12:21;5.97;;;3.07;;
6999;SDS011;3540;53.242;10.408;2023-04-01T02:17:26;8.00;;;2.93;;
6999;SDS011;3540;53.242;10.408;2023-04-01T02:20:08;11.23;;;3.17;;
6999;SDS011;3540;53.242;10.408;2023-04-01T02:22:41;6.70;;;3.07;;
6999;SDS011;3540;53.242;10.408;2023-04-01T02:25:12;7.57;;;2.90;;
6999;SDS011;3540;53.242;10.408;2023-04-01T02:27:50;8.93;;;3.10;;
6999;SDS011;3540;53.242;10.408;2023-04-01T02:30:17;6.93;;;2.77;;
6999;SDS011;3540;53.242;10.408;2023-04-01T02:32:43;8.30;;;3.10;;
6999;SDS011;3540;53.242;10.408;2023-04-01T02:35:10;6.77;;;3.10;;
6999;SDS011;3540;53.242;10.408;2023-04-01T02:37:38;9.57;;;2.90;;
6999;SDS011;3540;53.242;10.408;2023-04-01T02:40:08;7.13;;;2.90;;
6999;SDS011;3540;53.242;10.408;2023-04-01T02:42:36;5.70;;;2.73;;
6999;SDS011;3540;53.242;10.408;2023-04-01T02:45:02;9.50;;;3.47;;
6999;SDS011;3540;53.242;10.408;2023-04-01T02:47:29;8.57;;;3.07;;
6999;SDS011;3540;53.242;10.408;2023-04-01T02:49:54;8.83;;;3.30;;
6999;SDS011;3540;53.242;10.408;2023-04-01T02:52:27;7.03;;;3.00;;
6999;SDS011;3540;53.242;10.408;2023-04-01T02:54:54;9.27;;;3.43;;
6999;SDS011;3540;53.242;10.408;2023-04-01T02:57:20;9.53;;;3.30;;
6999;SDS011;3540;53.242;10.408;2023-04-01T02:59:46;6.33;;;2.80;;
6999;SDS011;3540;53.242;10.408;2023-04-01T03:02:12;8.73;;;2.53;;
6999;SDS011;3540;53.242;10.408;2023-04-01T03:04:38;9.50;;;2.70;;
6999;SDS011;3540;53.242;10.408;2023-04-01T03:07:03;6.77;;;3.07;;
6999;SDS011;3540;53.242;10.408;2023-04-01T03:09:29;7.00;;;3.00;;
6999;SDS011;3540;53.242;10.408;2023-04-01T03:11:55;6.00;;;2.80;;
6999;SDS011;3540;53.242;10.408;2023-04-01T03:14:21;11.20;;;3.27;;
6999;SDS011;3540;53.242;10.408;2023-04-01T03:16:46;7.60;;;2.80;;
6999;SDS011;3540;53.242;10.408;2023-04-01T03:19:12;7.23;;;2.97;;
6999;SDS011;3540;53.242;10.408;2023-04-01T03:21:37;8.77;;;3.30;;
6999;SDS011;3540;53.242;10.408;2023-04-01T03:24:03;9.63;;;2.80;;
6999;SDS011;3540;53.242;10.408;2023-04-01T03:26:29;6.63;;;3.40;;
6999;SDS011;3540;53.242;10.408;2023-04-01T03:28:55;9.23;;;3.33;;
6999;SDS011;3540;53.242;10.408;2023-04-01T03:31:20;7.97;;;3.10;;
6999;SDS011;3540;53.242;10.408;2023-04-01T03:33:46;7.53;;;2.87;;
6999;SDS011;3540;53.242;10.408;2023-04-01T03:36:12;7.43;;;2.90;;
6999;SDS011;3540;53.242;10.408;2023-04-01T03:38:41;8.13;;;3.17;;
6999;SDS011;3540;53.242;10.408;2023-04-01T03:41:07;5.70;;;2.90;;
6999;SDS011;3540;53.242;10.408;2023-04-01T03:43:36;11.87;;;3.33;;
6999;SDS011;3540;53.242;10.408;2023-04-01T03:46:02;8.40;;;3.03;;
6999;SDS011;3540;53.242;10.408;2023-04-01T03:48:27;6.13;;;3.10;;
6999;SDS011;3540;53.242;10.408;2023-04-01T03:50:53;7.73;;;3.07;;
6999;SDS011;3540;53.242;10.408;2023-04-01T03:53:18;8.73;;;2.90;;
6999;SDS011;3540;53.242;10.408;2023-04-01T03:55:44;6.73;;;3.17;;
6999;SDS011;3540;53.242;10.408;2023-04-01T03:58:10;6.37;;;2.80;;
6999;SDS011;3540;53.242;10.408;2023-04-01T04:00:36;7.40;;;3.13;;
6999;SDS011;3540;53.242;10.408;2023-04-01T04:03:01;5.53;;;2.90;;
6999;SDS011;3540;53.242;10.408;2023-04-01T04:05:27;8.37;;;2.87;;
6999;SDS011;3540;53.242;10.408;2023-04-01T04:07:53;4.80;;;2.47;;
6999;SDS011;3540;53.242;10.408;2023-04-01T04:10:19;8.03;;;3.00;;
6999;SDS011;3540;53.242;10.408;2023-04-01T04:12:45;13.30;;;3.30;;
6999;SDS011;3540;53.242;10.408;2023-04-01T04:15:11;8.57;;;2.83;;
6999;SDS011;3540;53.242;10.408;2023-04-01T04:17:37;9.73;;;2.90;;
6999;SDS011;3540;53.242;10.408;2023-04-01T04:20:02;8.00;;;2.70;;
6999;SDS011;3540;53.242;10.408;2023-04-01T04:22:28;8.90;;;3.00;;
6999;SDS011;3540;53.242;10.408;2023-04-01T04:24:54;11.13;;;3.43;;
6999;SDS011;3540;53.242;10.408;2023-04-01T04:27:20;7.43;;;3.77;;
6999;SDS011;3540;53.242;10.408;2023-04-01T04:29:45;11.43;;;5.97;;
6999;SDS011;3540;53.242;10.408;2023-04-01T04:32:11;12.27;;;4.07;;
6999;SDS011;3540;53.242;10.408;2023-04-01T04:34:37;8.57;;;3.23;;
6999;SDS011;3540;53.242;10.408;2023-04-01T04:37:02;9.03;;;3.17;;
6999;SDS011;3540;53.242;10.408;2023-04-01T04:39:28;6.83;;;2.90;;
6999;SDS011;3540;53.242;10.408;2023-04-01T04:41:54;8.27;;;3.33;;
6999;SDS011;3540;53.242;10.408;2023-04-01T04:44:20;5.67;;;3.20;;
6999;SDS011;3540;53.242;10.408;2023-04-01T04:46:45;8.23;;;3.20;;
6999;SDS011;3540;53.242;10.408;2023-04-01T04:49:11;8.53;;;3.40;;
6999;SDS011;3540;53.242;10.408;2023-04-01T04:51:36;8.63;;;3.13;;
6999;SDS011;3540;53.242;10.408;2023-04-01T04:54:03;7.70;;;3.03;;
6999;SDS011;3540;53.242;10.408;2023-04-01T04:56:29;10.57;;;3.70;;
6999;SDS011;3540;53.242;10.408;2023-04-01T04:58:55;9.67;;;3.40;;
6999;SDS011;3540;53.242;10.408;2023-04-01T05:01:21;10.50;;;3.77;;
6999;SDS011;3540;53.242;10.408;2023-04-01T05:03:47;10.43;;;3.77;;
6999;SDS011;3540;53.242;10.408;2023-04-01T05:06:14;8.60;;;3.50;;
6999;SDS011;3540;53.242;10.408;2023-04-01T05:08:40;7.97;;;3.27;;
6999;SDS011;3540;53.242;10.408;2023-04-01T05:11:09;10.47;;;3.70;;
6999;SDS011;3540;53.242;10.408;2023-04-01T05:13:37;12.13;;;3.80;;
6999;SDS011;3540;53.242;10.408;2023-04-01T05:16:03;8.50;;;3.33;;
6999;SDS011;3540;53.242;10.408;2023-04-01T05:18:32;9.60;;;3.50;;
6999;SDS011;3540;53.242;10.408;2023-04-01T05:20:57;9.67;;;4.00;;
6999;SDS011;3540;53.242;10.408;2023-04-01T05:23:23;9.80;;;4.43;;
6999;SDS011;3540;53.242;10.408;2023-04-01T05:25:49;10.23;;;4.37;;
6999;SDS011;3540;53.242;10.408;2023-04-01T05:28:17;7.37;;;3.77;;
6999;SDS011;3540;53.242;10.408;2023-04-01T05:30:43;13.27;;;3.93;;
6999;SDS011;3540;53.242;10.408;2023-04-01T05:33:10;11.53;;;3.67;;
6999;SDS011;3540;53.242;10.408;2023-04-01T05:35:37;10.33;;;3.70;;
6999;SDS011;3540;53.242;10.408;2023-04-01T05:38:03;12.30;;;3.93;;
6999;SDS011;3540;53.242;10.408;2023-04-01T05:40:29;6.13;;;3.40;;
6999;SDS011;3540;53.242;10.408;2023-04-01T05:42:55;9.60;;;3.60;;
6999;SDS011;3540;53.242;10.408;2023-04-01T05:45:20;10.77;;;3.47;;
6999;SDS011;3540;53.242;10.408;2023-04-01T05:47:46;11.73;;;3.63;;
6999;SDS011;3540;53.242;10.408;2023-04-01T05:50:12;8.90;;;3.83;;
6999;SDS011;3540;53.242;10.408;2023-04-01T05:52:38;12.90;;;4.10;;
6999;SDS011;3540;53.242;10.408;2023-04-01T05:55:04;9.50;;;3.53;;
6999;SDS011;3540;53.242;10.408;2023-04-01T05:57:30;8.17;;;3.60;;
6999;SDS011;3540;53.242;10.408;2023-04-01T05:59:56;10.70;;;4.43;;
6999;SDS011;3540;53.242;10.408;2023-04-01T06:02:22;8.30;;;3.80;;
6999;SDS011;3540;53.242;10.408;2023-04-01T06:04:48;8.10;;;3.77;;
6999;SDS011;3540;53.242;10.408;2023-04-01T06:07:14;6.13;;;3.50;;
6999;SDS011;3540;53.242;10.408;2023-04-01T06:09:42;10.77;;;3.77;;
6999;SDS011;3540;53.242;10.408;2023-04-01T06:12:14;10.27;;;3.80;;
6999;SDS011;3540;53.242;10.408;2023-04-01T06:28:35;13.83;;;4.77;;
6999;SDS011;3540;53.242;10.408;2023-04-01T06:31:33;8.93;;;4.70;;
6999;SDS011;3540;53.242;10.408;2023-04-01T06:39:26;11.00;;;4.73;;
6999;SDS011;3540;53.242;10.408;2023-04-01T06:58:20;2.60;;;2.40;;
6999;SDS011;3540;53.242;10.408;2023-04-01T07:00:50;2.50;;;2.30;;
6999;SDS011;3540;53.242;10.408;2023-04-01T07:03:20;3.00;;;2.20;;
6999;SDS011;3540;53.242;10.408;2023-04-01T07:05:51;3.33;;;2.53;;
6999;SDS011;3540;53.242;10.408;2023-04-01T07:08:22;5.43;;;4.00;;
6999;SDS011;3540;53.242;10.408;2023-04-01T07:13:36;7.43;;;5.20;;
6999;SDS011;3540;53.242;10.408;2023-04-01T07:18:42;4.43;;;1.40;;
6999;SDS011;3540;53.242;10.408;2023-04-01T07:21:35;2.00;;;1.40;;
6999;SDS011;3540;53.242;10.408;2023-04-01T07:24:10;1.50;;;1.40;;
6999;SDS011;3540;53.242;10.408;2023-04-01T07:26:46;2.73;;;1.50;;
6999;SDS011;3540;53.242;10.408;2023-04-01T07:29:14;1.60;;;1.50;;
6999;SDS011;3540;53.242;10.408;2023-04-01T07:34:34;1.60;;;1.50;;
6999;SDS011;3540;53.242;10.408;2023-04-01T07:45:06;1.50;;;1.40;;
6999;SDS011;3540;53.242;10.408;2023-04-01T07:47:58;1.40;;;1.30;;
6999;SDS011;3540;53.242;10.408;2023-04-01T07:55:44;1.20;;;1.20;;
6999;SDS011;3540;53.242;10.408;2023-04-01T08:01:28;1.30;;;1.20;;
6999;SDS011;3540;53.242;10.408;2023-04-01T08:04:08;1.57;;;1.40;;
6999;SDS011;3540;53.242;10.408;2023-04-01T08:12:31;1.50;;;1.40;;
6999;SDS011;3540;53.242;10.408;2023-04-01T08:20:36;1.40;;;1.13;;
6999;SDS011;3540;53.242;10.408;2023-04-01T08:26:06;1.40;;;1.30;;
6999;SDS011;3540;53.242;10.408;2023-04-01T08:34:30;1.40;;;1.30;;
6999;SDS011;3540;53.242;10.408;2023-04-01T08:37:05;1.40;;;1.30;;
6999;SDS011;3540;53.242;10.408;2023-04-01T08:39:39;1.50;;;1.37;;
6999;SDS011;3540;53.242;10.408;2023-04-01T08:45:21;1.50;;;1.40;;
6999;SDS011;3540;53.242;10.408;2023-04-01T08:51:05;1.53;;;1.20;;
6999;SDS011;3540;53.242;10.408;2023-04-01T08:56:36;1.00;;;1.00;;
6999;SDS011;3540;53.242;10.408;2023-04-01T08:59:14;1.57;;;1.00;;
6999;SDS011;3540;53.242;10.408;2023-04-01T09:02:03;1.10;;;1.00;;
6999;SDS011;3540;53.242;10.408;2023-04-01T09:23:47;0.80;;;0.80;;
6999;SDS011;3540;53.242;10.408;2023-04-01T09:45:17;1.37;;;1.20;;
6999;SDS011;3540;53.242;10.408;2023-04-01T09:48:16;1.20;;;1.10;;
6999;SDS011;3540;53.242;10.408;2023-04-01T09:53:36;1.57;;;1.37;;
6999;SDS011;3540;53.242;10.408;2023-04-01T10:12:38;1.50;;;1.40;;
6999;SDS011;3540;53.242;10.408;2023-04-01T10:15:29;1.93;;;1.30;;
6999;SDS011;3540;53.242;10.408;2023-04-01T10:24:04;1.47;;;1.03;;
6999;SDS011;3540;53.242;10.408;2023-04-01T10:26:54;1.63;;;1.30;;
6999;SDS011;3540;53.242;10.408;2023-04-01T10:46:17;1.30;;;1.20;;
6999;SDS011;3540;53.242;10.408;2023-04-01T11:24:59;1.50;;;1.40;;
6999;SDS011;3540;53.242;10.408;2023-04-01T11:46:30;1.20;;;1.10;;
6999;SDS011;3540;53.242;10.408;2023-04-01T12:05:41;1.40;;;1.30;;
6999;SDS011;3540;53.242;10.408;2023-04-01T12:10:48;1.40;;;1.30;;
6999;SDS011;3540;53.242;10.408;2023-04-01T12:16:19;1.50;;;1.40;;
6999;SDS011;3540;53.242;10.408;2023-04-01T12:19:24;2.20;;;1.30;;
6999;SDS011;3540;53.242;10.408;2023-04-01T12:29:54;2.07;;;1.80;;
6999;SDS011;3540;53.242;10.408;2023-04-01T12:32:45;2.07;;;1.77;;
6999;SDS011;3540;53.242;10.408;2023-04-01T12:41:14;4.47;;;2.10;;
6999;SDS011;3540;53.242;10.408;2023-04-01T12:43:56;2.10;;;1.60;;
6999;SDS011;3540;53.242;10.408;2023-04-01T12:52:08;2.70;;;2.30;;
6999;SDS011;3540;53.242;10.408;2023-04-01T13:03:18;3.07;;;2.17;;
6999;SDS011;3540;53.242;10.408;2023-04-01T13:14:10;4.30;;;2.57;;
6999;SDS011;3540;53.242;10.408;2023-04-01T13:20:03;2.23;;;2.00;;
6999;SDS011;3540;53.242;10.408;2023-04-01T13:28:25;4.77;;;2.57;;
6999;SDS011;3540;53.242;10.408;2023-04-01T13:47:20;6.23;;;2.90;;
6999;SDS011;3540;53.242;10.408;2023-04-01T14:13:06;4.37;;;2.77;;
6999;SDS011;3540;53.242;10.408;2023-04-01T14:18:16;6.77;;;2.80;;
6999;SDS011;3540;53.242;10.408;2023-04-01T14:48:56;4.17;;;2.40;;
6999;SDS011;3540;53.242;10.408;2023-04-01T14:54:02;3.47;;;2.60;;
6999;SDS011;3540;53.242;10.408;2023-04-01T14:56:39;5.30;;;2.90;;
6999;SDS011;3540;53.242;10.408;2023-04-01T14:59:08;4.77;;;3.00;;
6999;SDS011;3540;53.242;10.408;2023-04-01T15:01:50;3.77;;;2.93;;
6999;SDS011;3540;53.242;10.408;2023-04-01T15:18:41;3.60;;;2.60;;
6999;SDS011;3540;53.242;10.408;2023-04-01T15:29:06;5.77;;;3.33;;
6999;SDS011;3540;53.242;10.408;2023-04-01T15:31:41;5.80;;;3.23;;
6999;SDS011;3540;53.242;10.408;2023-04-01T15:34:17;9.20;;;5.83;;
6999;SDS011;3540;53.242;10.408;2023-04-01T15:37:14;6.50;;;3.40;;
6999;SDS011;3540;53.242;10.408;2023-04-01T15:40:02;5.23;;;3.23;;
6999;SDS011;3540;53.242;10.408;2023-04-01T15:50:59;6.37;;;3.47;;
6999;SDS011;3540;53.242;10.408;2023-04-01T15:56:45;5.33;;;3.43;;
6999;SDS011;3540;53.242;10.408;2023-04-01T16:04:46;7.23;;;3.53;;
6999;SDS011;3540;53.242;10.408;2023-04-01T16:07:37;6.77;;;3.50;;
6999;SDS011;3540;53.242;10.408;2023-04-01T16:10:32;6.80;;;3.83;;
6999;SDS011;3540;53.242;10.408;2023-04-01T16:13:40;7.30;;;3.97;;
6999;SDS011;3540;53.242;10.408;2023-04-01T16:16:25;5.40;;;3.87;;
6999;SDS011;3540;53.242;10.408;2023-04-01T16:24:45;10.83;;;4.47;;
6999;SDS011;3540;53.242;10.408;2023-04-01T16:38:15;9.37;;;4.67;;
6999;SDS011;3540;53.242;10.408;2023-04-01T17:11:23;10.20;;;4.47;;
6999;SDS011;3540;53.242;10.408;2023-04-01T17:14:28;7.33;;;4.60;;
6999;SDS011;3540;53.242;10.408;2023-04-01T17:32:39;9.70;;;4.50;;
6999;SDS011;3540;53.242;10.408;2023-04-01T17:56:10;13.77;;;5.83;;
6999;SDS011;3540;53.242;10.408;2023-04-01T17:58:46;6.30;;;4.80;;
6999;SDS011;3540;53.242;10.408;2023-04-01T18:01:34;10.63;;;4.80;;
6999;SDS011;3540;53.242;10.408;2023-04-01T18:04:36;9.03;;;5.10;;
6999;SDS011;3540;53.242;10.408;2023-04-01T18:10:23;9.13;;;5.10;;
6999;SDS011;3540;53.242;10.408;2023-04-01T18:21:43;9.23;;;5.60;;
6999;SDS011;3540;53.242;10.408;2023-04-01T18:24:23;14.87;;;7.37;;
6999;SDS011;3540;53.242;10.408;2023-04-01T18:30:18;7.60;;;5.40;;
6999;SDS011;3540;53.242;10.408;2023-04-01T18:32:36;13.40;;;6.73;;
6999;SDS011;3540;53.242;10.408;2023-04-01T18:35:19;9.33;;;6.23;;
6999;SDS011;3540;53.242;10.408;2023-04-01T18:37:48;9.63;;;5.70;;
6999;SDS011;3540;53.242;10.408;2023-04-01T18:40:34;9.93;;;5.83;;
6999;SDS011;3540;53.242;10.408;2023-04-01T18:43:27;11.03;;;6.47;;
6999;SDS011;3540;53.242;10.408;2023-04-01T18:46:16;8.50;;;5.90;;
6999;SDS011;3540;53.242;10.408;2023-04-01T18:57:08;6.30;;;4.40;;
6999;SDS011;3540;53.242;10.408;2023-04-01T18:59:39;8.00;;;4.53;;
6999;SDS011;3540;53.242;10.408;2023-04-01T19:02:29;9.80;;;4.63;;
6999;SDS011;3540;53.242;10.408;2023-04-01T19:05:05;8.63;;;4.27;;
6999;SDS011;3540;53.242;10.408;2023-04-01T19:15:38;5.83;;;3.60;;
6999;SDS011;3540;53.242;10.408;2023-04-01T19:20:46;5.63;;;3.93;;
6999;SDS011;3540;53.242;10.408;2023-04-01T19:25:57;13.20;;;4.17;;
6999;SDS011;3540;53.242;10.408;2023-04-01T19:50:42;10.77;;;4.47;;
6999;SDS011;3540;53.242;10.408;2023-04-01T19:53:28;7.03;;;3.90;;
6999;SDS011;3540;53.242;10.408;2023-04-01T20:01:27;6.47;;;3.60;;
6999;SDS011;3540;53.242;10.408;2023-04-01T20:04:04;7.87;;;3.47;;
6999;SDS011;3540;53.242;10.408;2023-04-01T20:06:36;6.73;;;3.10;;
6999;SDS011;3540;53.242;10.408;2023-04-01T20:15:18;5.87;;;2.93;;
6999;SDS011;3540;53.242;10.408;2023-04-01T20:17:54;6.53;;;3.07;;
6999;SDS011;3540;53.242;10.408;2023-04-01T20:20:25;5.97;;;3.50;;
6999;SDS011;3540;53.242;10.408;2023-04-01T20:25:20;8.37;;;3.40;;
6999;SDS011;3540;53.242;10.408;2023-04-01T20:27:55;5.60;;;3.30;;
6999;SDS011;3540;53.242;10.408;2023-04-01T20:40:46;7.17;;;3.37;;
6999;SDS011;3540;53.242;10.408;2023-04-01T20:46:40;5.77;;;2.70;;
6999;SDS011;3540;53.242;10.408;2023-04-01T20:48:53;8.00;;;3.47;;
6999;SDS011;3540;53.242;10.408;2023-04-01T20:51:24;6.67;;;2.97;;
6999;SDS011;3540;53.242;10.408;2023-04-01T20:56:50;6.70;;;2.57;;
6999;SDS011;3540;53.242;10.408;2023-04-01T21:05:30;7.77;;;3.20;;
6999;SDS011;3540;53.242;10.408;2023-04-01T21:14:11;6.33;;;2.80;;
6999;SDS011;3540;53.242;10.408;2023-04-01T21:19:31;6.60;;;2.80;;
6999;SDS011;3540;53.242;10.408;2023-04-01T21:22:07;9.83;;;3.07;;
6999;SDS011;3540;53.242;10.408;2023-04-01T22:00:38;7.40;;;1.80;;
6999;SDS011;3540;53.242;10.408;2023-04-01T22:05:58;5.67;;;1.87;;
6999;SDS011;3540;53.242;10.408;2023-04-01T22:19:42;3.90;;;1.80;;
6999;SDS011;3540;53.242;10.408;2023-04-01T22:28:07;6.53;;;1.80;;
6999;SDS011;3540;53.242;10.408;2023-04-01T22:30:45;6.20;;;1.50;;
6999;SDS011;3540;53.242;10.408;2023-04-01T22:33:22;8.40;;;2.30;;
6999;SDS011;3540;53.242;10.408;2023-04-01T22:36:06;6.43;;;2.00;;
6999;SDS011;3540;53.242;10.408;2023-04-01T22:49:49;6.83;;;2.40;;
6999;SDS011;3540;53.242;10.408;2023-04-01T22:54:46;5.97;;;1.70;;
6999;SDS011;3540;53.242;10.408;2023-04-01T22:57:40;5.20;;;1.97;;
6999;SDS011;3540;53.242;10.408;2023-04-01T23:00:10;4.50;;;1.90;;
6999;SDS011;3540;53.242;10.408;2023-04-01T23:02:46;8.43;;;1.70;;
6999;SDS011;3540;53.242;10.408;2023-04-01T23:05:25;4.90;;;1.30;;
6999;SDS011;3540;53.242;10.408;2023-04-01T23:10:54;7.60;;;1.93;;
6999;SDS011;3540;53.242;10.408;2023-04-01T23:13:26;6.07;;;1.80;;
6999;SDS011;3540;53.242;10.408;2023-04-01T23:15:57;9.07;;;1.83;;
6999;SDS011;3540;53.242;10.408;2023-04-01T23:21:22;7.90;;;2.07;;
6999;SDS011;3540;53.242;10.408;2023-04-01T23:28:54;4.50;;;2.00;;
6999;SDS011;3540;53.242;10.408;2023-04-01T23:33:57;6.57;;;2.00;;
6999;SDS011;3540;53.242;10.408;2023-04-01T23:36:29;6.90;;;1.90;;
6999;SDS011;3540;53.242;10.408;2023-04-01T23:38:56;13.13;;;2.10;;
6999;SDS011;3540;53.242;10.408;2023-04-01T23:41:27;5.47;;;2.00;;
6999;SDS011;3540;53.242;10.408;2023-04-01T23:43:59;5.63;;;1.70;;
6999;SDS011;3540;53.242;10.408;2023-04-01T23:46:28;10.10;;;2.03;;
6999;SDS011;3540;53.242;10.408;2023-04-01T23:48:55;6.77;;;1.97;;
6999;SDS011;3540;53.242;10.408;2023-04-01T23:51:22;6.17;;;2.07;;
6999;SDS011;3540;53.242;10.408;2023-04-01T23:53:57;4.23;;;1.53;;
6999;SDS011;3540;53.242;10.408;2023-04-01T23:56:46;7.00;;;2.07;;
6999;SDS011;3540;53.242;10.408;2023-04-01T23:59:16;6.83;;;2.43;;
